KLOL

Derby Field Airport

Lovelock, Nevada, USA
METAR KLOL 141253Z AUTO 11006KT 10SM CLR 14/02 A3000 RMK AO2 SLP116 T01440017
Observed Flight Rules
Aug-14 @ 12:53 UTC (48 minutes ago) Visual Flight Rules
Wind Visibility Clouds
110° at 6 knots 10 miles
  • Clear skies
Temperatures Readings
Current 14°C / 57°F
Dewpoint 2°C / 36°F
Humidity 44%
Altimeter 30" Hg
Pressure 1011.6 hPa
Elevation 1189
METAR KLOL 141253Z AUTO 11006KT 10SM CLR 14/02 A3000 RMK AO2 SLP116 T01440017
Observed Flight Rules
Aug-14 @ 12:53 UTC
(48 minutes ago)
VFR
Wind Visibility
110° at 6 knots 10 miles
Clouds
  • Clear skies
Temperature Dewpoint
14°C / 57°F 2°C / 36°F
Humidity Altimeter Pressure
44% 30" Hg 1011.6 hPa